VH314 YSRI-YSSY
Flight info
| Callsign | VH314 |
|---|---|
| Flight time | 0h 24m |
| Altitude | 5000 |
| Route | SRIEF DCT D230I DCT DALAR DCT DUMOP DCT URDEN |
| Aircraft | JMB/L-V/N |
Departure
| Time | 2026-05-06 06:21 |
|---|---|
| Airport | RAAF Base Richmond (YSRI) |
Arrival
| Time | 2026-05-06 06:46 |
|---|---|
| Airport | Sydney Kingsford Smith International Airport (YSSY) |
| Time | Latitude | Longitude | Altitude | Speed | Heading |
|---|---|---|---|---|---|
| 2026-05-06 06:04 | -33.60207 | 150.77603 | 68 ft | 0 kts | 15° |
| 2026-05-06 06:07 | -33.60170 | 150.77608 | 70 ft | 8 kts | 282° |
| 2026-05-06 06:07 | -33.60169 | 150.77595 | 70 ft | 0 kts | 283° |
| 2026-05-06 06:15 | -33.60145 | 150.77512 | 70 ft | 33 kts | 288° |
| 2026-05-06 06:15 | -33.60085 | 150.77291 | 68 ft | 18 kts | 291° |
| 2026-05-06 06:15 | -33.60074 | 150.77252 | 72 ft | 0 kts | 266° |
| 2026-05-06 06:20 | -33.60067 | 150.77184 | 71 ft | 11 kts | 277° |
| 2026-05-06 06:21 | -33.60147 | 150.77161 | 69 ft | 22 kts | 171° |
| 2026-05-06 06:21 | -33.60197 | 150.77324 | 66 ft | 57 kts | 105° |
| 2026-05-06 06:21 | -33.60437 | 150.77961 | 197 ft | 95 kts | 113° |
| 2026-05-06 06:21 | -33.60624 | 150.78611 | 720 ft | 76 kts | 107° |
| 2026-05-06 06:22 | -33.60856 | 150.79233 | 1066 ft | 87 kts | 112° |
| 2026-05-06 06:22 | -33.61108 | 150.79907 | 1449 ft | 88 kts | 112° |
| 2026-05-06 06:22 | -33.61359 | 150.80586 | 1828 ft | 89 kts | 111° |
| 2026-05-06 06:22 | -33.61615 | 150.81244 | 2267 ft | 86 kts | 111° |
| 2026-05-06 06:23 | -33.61877 | 150.81911 | 2664 ft | 87 kts | 109° |
| 2026-05-06 06:23 | -33.62139 | 150.82586 | 3014 ft | 91 kts | 111° |
| 2026-05-06 06:23 | -33.62406 | 150.83282 | 3366 ft | 92 kts | 111° |
| 2026-05-06 06:23 | -33.62651 | 150.84001 | 3672 ft | 96 kts | 109° |
| 2026-05-06 06:24 | -33.62890 | 150.84763 | 4014 ft | 95 kts | 109° |
| 2026-05-06 06:24 | -33.63116 | 150.85490 | 4418 ft | 89 kts | 109° |
| 2026-05-06 06:24 | -33.63312 | 150.86176 | 4831 ft | 85 kts | 101° |
| 2026-05-06 06:24 | -33.63423 | 150.86888 | 5204 ft | 87 kts | 91° |
| 2026-05-06 06:25 | -33.63506 | 150.87738 | 5298 ft | 112 kts | 97° |
| 2026-05-06 06:25 | -33.63663 | 150.88708 | 5238 ft | 122 kts | 100° |
| 2026-05-06 06:25 | -33.63932 | 150.90757 | 5160 ft | 123 kts | 99° |
| 2026-05-06 06:26 | -33.64146 | 150.91751 | 5147 ft | 124 kts | 110° |
| 2026-05-06 06:26 | -33.64544 | 150.92688 | 5062 ft | 128 kts | 120° |
| 2026-05-06 06:26 | -33.64972 | 150.93601 | 5052 ft | 123 kts | 120° |
| 2026-05-06 06:26 | -33.65405 | 150.94499 | 5017 ft | 125 kts | 119° |
| 2026-05-06 06:27 | -33.65816 | 150.95417 | 4998 ft | 124 kts | 116° |
| 2026-05-06 06:27 | -33.65982 | 150.95819 | 4995 ft | 123 kts | 115° |
| 2026-05-06 06:31 | -33.66228 | 150.96449 | 4969 ft | 124 kts | 114° |
| 2026-05-06 06:31 | -33.66581 | 150.97348 | 4948 ft | 124 kts | 116° |
| 2026-05-06 06:31 | -33.66993 | 150.98271 | 4894 ft | 125 kts | 119° |
| 2026-05-06 06:31 | -33.67426 | 150.99122 | 4854 ft | 124 kts | 124° |
| 2026-05-06 06:32 | -33.67942 | 150.99957 | 4819 ft | 125 kts | 129° |
| 2026-05-06 06:32 | -33.68485 | 151.00750 | 4806 ft | 124 kts | 130° |
| 2026-05-06 06:32 | -33.69044 | 151.01542 | 4806 ft | 124 kts | 130° |
| 2026-05-06 06:32 | -33.69566 | 151.02366 | 4806 ft | 124 kts | 125° |
| 2026-05-06 06:33 | -33.70054 | 151.03219 | 4793 ft | 124 kts | 124° |
| 2026-05-06 06:33 | -33.70536 | 151.04086 | 4757 ft | 125 kts | 123° |
| 2026-05-06 06:33 | -33.71000 | 151.04971 | 4744 ft | 124 kts | 124° |
| 2026-05-06 06:33 | -33.71559 | 151.05752 | 4749 ft | 124 kts | 138° |
| 2026-05-06 06:34 | -33.72079 | 151.06549 | 4804 ft | 122 kts | 122° |
| 2026-05-06 06:34 | -33.72513 | 151.07453 | 4733 ft | 126 kts | 117° |
| 2026-05-06 06:34 | -33.72887 | 151.08391 | 4748 ft | 124 kts | 112° |
| 2026-05-06 06:34 | -33.73173 | 151.09370 | 4708 ft | 125 kts | 104° |
| 2026-05-06 06:35 | -33.73353 | 151.10386 | 4685 ft | 123 kts | 96° |
| 2026-05-06 06:35 | -33.73473 | 151.11406 | 4641 ft | 125 kts | 97° |
| 2026-05-06 06:35 | -33.73626 | 151.12434 | 4614 ft | 125 kts | 99° |
| 2026-05-06 06:35 | -33.73806 | 151.13451 | 4592 ft | 125 kts | 101° |
| 2026-05-06 06:36 | -33.74008 | 151.14466 | 4585 ft | 125 kts | 103° |
| 2026-05-06 06:36 | -33.74266 | 151.15461 | 4549 ft | 125 kts | 108° |
| 2026-05-06 06:36 | -33.74555 | 151.16441 | 4528 ft | 124 kts | 109° |
| 2026-05-06 06:36 | -33.74860 | 151.17407 | 4430 ft | 124 kts | 110° |
| 2026-05-06 06:37 | -33.75164 | 151.18379 | 4214 ft | 124 kts | 105° |
| 2026-05-06 06:37 | -33.74931 | 151.19292 | 4008 ft | 116 kts | 41° |
| 2026-05-06 06:37 | -33.74273 | 151.19700 | 3977 ft | 102 kts | 359° |
| 2026-05-06 06:37 | -33.73534 | 151.19613 | 3740 ft | 110 kts | 349° |
| 2026-05-06 06:38 | -33.72779 | 151.19438 | 3546 ft | 111 kts | 345° |
| 2026-05-06 06:38 | -33.72048 | 151.19187 | 3391 ft | 108 kts | 340° |
| 2026-05-06 06:38 | -33.71343 | 151.18864 | 3184 ft | 109 kts | 336° |
| 2026-05-06 06:38 | -33.70694 | 151.18431 | 3076 ft | 101 kts | 307° |
| 2026-05-06 06:39 | -33.70836 | 151.17648 | 3000 ft | 109 kts | 219° |
| 2026-05-06 06:39 | -33.71590 | 151.17539 | 2877 ft | 116 kts | 175° |
| 2026-05-06 06:39 | -33.72417 | 151.17628 | 2661 ft | 122 kts | 175° |
| 2026-05-06 06:39 | -33.73242 | 151.17735 | 2549 ft | 117 kts | 173° |
| 2026-05-06 06:40 | -33.73781 | 151.17827 | 2419 ft | 119 kts | 170° |
| 2026-05-06 06:40 | -33.74587 | 151.17935 | 2311 ft | 114 kts | 174° |
| 2026-05-06 06:40 | -33.75386 | 151.18044 | 2230 ft | 114 kts | 175° |
| 2026-05-06 06:40 | -33.76181 | 151.18007 | 2094 ft | 119 kts | 183° |
| 2026-05-06 06:41 | -33.76955 | 151.17920 | 2162 ft | 108 kts | 188° |
| 2026-05-06 06:41 | -33.77629 | 151.17784 | 2144 ft | 109 kts | 187° |
| 2026-05-06 06:41 | -33.78381 | 151.17563 | 2021 ft | 113 kts | 206° |
| 2026-05-06 06:41 | -33.79049 | 151.17132 | 2020 ft | 107 kts | 212° |
| 2026-05-06 06:42 | -33.79749 | 151.16654 | 2056 ft | 122 kts | 208° |
| 2026-05-06 06:42 | -33.80533 | 151.16195 | 2008 ft | 130 kts | 206° |
| 2026-05-06 06:42 | -33.81358 | 151.15827 | 2053 ft | 126 kts | 189° |
| 2026-05-06 06:42 | -33.82254 | 151.15661 | 1931 ft | 132 kts | 187° |
| 2026-05-06 06:43 | -33.83175 | 151.15581 | 1808 ft | 134 kts | 179° |
| 2026-05-06 06:43 | -33.84136 | 151.15567 | 1509 ft | 140 kts | 181° |
| 2026-05-06 06:43 | -33.85101 | 151.15568 | 1274 ft | 137 kts | 177° |
| 2026-05-06 06:43 | -33.86052 | 151.15602 | 1060 ft | 136 kts | 176° |
| 2026-05-06 06:44 | -33.86979 | 151.15685 | 870 ft | 133 kts | 172° |
| 2026-05-06 06:44 | -33.87880 | 151.15841 | 755 ft | 129 kts | 166° |
| 2026-05-06 06:44 | -33.88750 | 151.16089 | 643 ft | 129 kts | 165° |
| 2026-05-06 06:44 | -33.89635 | 151.16302 | 501 ft | 129 kts | 165° |
| 2026-05-06 06:45 | -33.90510 | 151.16533 | 363 ft | 129 kts | 168° |
| 2026-05-06 06:45 | -33.91386 | 151.16757 | 198 ft | 128 kts | 165° |
| 2026-05-06 06:45 | -33.92193 | 151.16963 | 107 ft | 112 kts | 163° |
| 2026-05-06 06:45 | -33.92897 | 151.17145 | 34 ft | 94 kts | 163° |
| 2026-05-06 06:46 | -33.93469 | 151.17317 | 11 ft | 71 kts | 167° |
| 2026-05-06 06:46 | -33.93816 | 151.17402 | 11 ft | 32 kts | 173° |
| 2026-05-06 06:46 | -33.93942 | 151.17340 | 12 ft | 29 kts | 242° |
| 2026-05-06 06:46 | -33.93955 | 151.17282 | 13 ft | 0 kts | 263° |
| 2026-05-06 06:47 | -33.93958 | 151.17273 | 13 ft | 7 kts | 251° |
| 2026-05-06 06:47 | -33.93958 | 151.17235 | 13 ft | 0 kts | 344° |
| 2026-05-06 06:48 | -33.93841 | 151.17197 | 10 ft | 36 kts | 344° |
| 2026-05-06 06:48 | -33.93656 | 151.17143 | 15 ft | 20 kts | 346° |
| 2026-05-06 06:48 | -33.93463 | 151.17092 | 15 ft | 29 kts | 345° |
| 2026-05-06 06:49 | -33.93308 | 151.17032 | 15 ft | 18 kts | 323° |
| 2026-05-06 06:49 | -33.93209 | 151.16953 | 15 ft | 24 kts | 346° |
| 2026-05-06 06:49 | -33.93082 | 151.16892 | 15 ft | 15 kts | 274° |
| 2026-05-06 06:49 | -33.93065 | 151.16766 | 15 ft | 18 kts | 306° |
| 2026-05-06 06:50 | -33.93005 | 151.16730 | 15 ft | 14 kts | 351° |
| 2026-05-06 06:50 | -33.92984 | 151.16728 | 15 ft | 0 kts | 19° |